createdAt,value
2019-02-19T00:00:08.541Z,77.83
2019-02-19T00:01:08.533Z,77.83
2019-02-19T00:02:08.530Z,77.17
2019-02-19T00:03:08.518Z,77.45
2019-02-19T00:04:08.504Z,77.83
2019-02-19T00:05:08.496Z,77.64
2019-02-19T00:06:08.508Z,77.83
2019-02-19T00:07:08.476Z,77.64
2019-02-19T00:08:08.473Z,78.22
2019-02-19T00:09:08.463Z,77.55
2019-02-19T00:10:08.450Z,77.83
2019-02-19T00:11:08.443Z,77.36
2019-02-19T00:12:08.443Z,77.64
2019-02-19T00:13:08.431Z,77.74
2019-02-19T00:14:08.425Z,78.03
2019-02-19T00:15:08.745Z,77.64
2019-02-19T00:16:08.403Z,78.03
2019-02-19T00:17:08.396Z,77.55
2019-02-19T00:18:08.384Z,77.55
2019-02-19T00:19:08.378Z,77.93
2019-02-19T00:20:08.381Z,78.03
2019-02-19T00:21:08.364Z,78.03
2019-02-19T00:22:08.359Z,77.83
2019-02-19T00:23:08.350Z,78.03
2019-02-19T00:24:08.339Z,77.93
2019-02-19T00:25:08.329Z,78.12
2019-02-19T00:26:08.325Z,78.03
2019-02-19T00:27:08.320Z,77.83
2019-02-19T00:28:08.304Z,78.41
2019-02-19T00:29:08.297Z,78.50
2019-02-19T00:30:08.285Z,78.50
2019-02-19T00:31:08.278Z,78.50
2019-02-19T00:32:08.275Z,78.78
2019-02-19T00:33:08.266Z,78.31
2019-02-19T00:34:08.256Z,78.41
2019-02-19T00:35:08.248Z,78.50
2019-02-19T00:36:08.235Z,78.22
2019-02-19T00:37:08.227Z,78.59
2019-02-19T00:38:08.220Z,78.59
2019-02-19T00:39:08.213Z,78.50
2019-02-19T00:40:08.210Z,78.78
2019-02-19T00:41:08.200Z,78.78
2019-02-19T00:42:08.188Z,78.59
2019-02-19T00:43:08.180Z,78.69
2019-02-19T00:44:08.177Z,78.69
2019-02-19T00:45:16.281Z,78.69
2019-02-19T00:46:08.157Z,78.88
2019-02-19T00:47:08.151Z,79.64
2019-02-19T00:48:08.135Z,79.27
2019-02-19T00:49:08.128Z,78.78
2019-02-19T00:50:08.123Z,79.07
2019-02-19T00:51:08.110Z,78.78
2019-02-19T00:52:08.109Z,78.69
2019-02-19T00:53:08.100Z,78.98
2019-02-19T00:54:08.094Z,79.07
2019-02-19T00:55:08.085Z,78.94
2019-02-19T00:56:08.115Z,78.98
2019-02-19T00:57:08.065Z,78.78
2019-02-19T00:58:08.063Z,79.32
2019-02-19T00:59:08.052Z,79.07
2019-02-19T01:00:08.040Z,79.64
2019-02-19T01:01:08.032Z,79.60
2019-02-19T01:02:08.019Z,80.18
2019-02-19T01:03:08.013Z,79.64
2019-02-19T01:04:08.009Z,79.32
2019-02-19T01:05:08.000Z,79.51
2019-02-19T01:06:07.992Z,79.93
2019-02-19T01:07:07.984Z,79.51
2019-02-19T01:08:07.971Z,79.32
2019-02-19T01:09:07.961Z,80.36
2019-02-19T01:10:07.957Z,80.31
2019-02-19T01:11:07.949Z,80.18
2019-02-19T01:12:07.946Z,79.99
2019-02-19T01:13:07.941Z,79.99
2019-02-19T01:14:07.923Z,80.18
2019-02-19T01:15:07.915Z,80.27
2019-02-19T01:16:07.914Z,80.08
2019-02-19T01:17:07.903Z,80.08
2019-02-19T01:18:07.894Z,80.46
2019-02-19T01:19:07.884Z,80.08
2019-02-19T01:20:07.913Z,80.55
2019-02-19T01:21:07.861Z,80.94
2019-02-19T01:22:07.858Z,80.94
2019-02-19T01:23:07.851Z,80.65
2019-02-19T01:24:07.846Z,80.65
2019-02-19T01:25:07.836Z,80.55
2019-02-19T01:26:07.825Z,80.84
2019-02-19T01:27:07.819Z,80.94
2019-02-19T01:28:07.807Z,81.03
2019-02-19T01:29:07.797Z,80.55
2019-02-19T01:30:07.792Z,81.51
2019-02-19T01:31:07.784Z,81.03
2019-02-19T01:32:07.770Z,80.65
2019-02-19T01:33:07.769Z,80.84
2019-02-19T01:34:07.757Z,80.55
2019-02-19T01:35:07.750Z,80.84
2019-02-19T01:36:07.745Z,81.51
2019-02-19T01:37:07.736Z,81.70
2019-02-19T01:38:07.728Z,81.51
2019-02-19T01:39:07.720Z,81.41
2019-02-19T01:40:07.707Z,81.70
2019-02-19T01:41:07.701Z,81.41
2019-02-19T01:42:07.688Z,82.46
2019-02-19T01:43:07.677Z,81.79
2019-02-19T01:44:07.675Z,82.93
2019-02-19T01:45:07.666Z,82.27
2019-02-19T01:46:07.652Z,82.27
2019-02-19T01:47:07.644Z,81.79
2019-02-19T01:48:07.641Z,82.27
2019-02-19T01:49:07.632Z,82.65
2019-02-19T01:50:07.627Z,82.56
2019-02-19T01:51:07.617Z,82.65
2019-02-19T01:52:07.606Z,82.56
2019-02-19T01:53:07.615Z,82.46
2019-02-19T01:54:07.590Z,82.56
2019-02-19T01:55:07.582Z,82.75
2019-02-19T01:56:07.576Z,82.46
2019-02-19T01:57:07.567Z,82.75
2019-02-19T01:58:07.559Z,83.13
2019-02-19T01:59:07.547Z,82.75
2019-02-19T02:00:07.540Z,82.65
2019-02-19T02:01:07.529Z,82.93
2019-02-19T02:02:07.523Z,82.65
2019-02-19T02:03:07.516Z,83.03
2019-02-19T02:04:07.503Z,82.93
2019-02-19T02:05:07.495Z,83.22
2019-02-19T02:06:07.489Z,83.22
2019-02-19T02:07:07.480Z,82.65
2019-02-19T02:08:07.478Z,82.75
2019-02-19T02:09:07.467Z,82.79
2019-02-19T02:10:07.459Z,83.07
2019-02-19T02:11:07.454Z,82.93
2019-02-19T02:12:07.439Z,82.79
2019-02-19T02:13:07.430Z,82.50
2019-02-19T02:14:07.419Z,83.26
2019-02-19T02:15:07.412Z,83.55
2019-02-19T02:16:07.409Z,82.98
2019-02-19T02:17:07.399Z,83.07
2019-02-19T02:18:07.389Z,83.26
2019-02-19T02:19:07.382Z,83.07
2019-02-19T02:20:07.378Z,83.07
2019-02-19T02:21:07.368Z,83.26
2019-02-19T02:22:07.363Z,83.26
2019-02-19T02:23:07.355Z,82.98
2019-02-19T02:24:07.342Z,83.36
2019-02-19T02:25:07.334Z,82.50
2019-02-19T02:26:07.330Z,83.17
2019-02-19T02:27:07.313Z,83.65
2019-02-19T02:28:07.312Z,83.65
2019-02-19T02:29:07.303Z,83.74
2019-02-19T02:30:07.301Z,83.26
2019-02-19T02:31:07.293Z,83.17
2019-02-19T02:32:07.276Z,83.26
2019-02-19T02:33:07.278Z,83.74
2019-02-19T02:34:07.270Z,83.55
2019-02-19T02:35:07.256Z,84.12
2019-02-19T02:36:07.254Z,84.03
2019-02-19T02:37:07.241Z,84.12
2019-02-19T02:38:07.226Z,85.08
2019-02-19T02:39:07.217Z,84.79
2019-02-19T02:40:07.255Z,84.41
2019-02-19T02:41:07.213Z,84.79
2019-02-19T02:42:07.200Z,84.50
2019-02-19T02:43:07.192Z,84.22
2019-02-19T02:44:07.180Z,84.31
2019-02-19T02:45:07.170Z,83.84
2019-02-19T02:46:07.170Z,83.84
2019-02-19T02:47:07.157Z,83.84
2019-02-19T02:48:07.156Z,84.69
2019-02-19T02:49:07.146Z,84.98
2019-02-19T02:50:07.133Z,85.27
2019-02-19T02:51:07.127Z,84.69
2019-02-19T02:52:07.134Z,84.03
2019-02-19T02:53:07.115Z,84.31
2019-02-19T02:54:07.105Z,83.93
2019-02-19T02:55:07.100Z,84.31
2019-02-19T02:56:07.086Z,85.08
2019-02-19T02:57:07.075Z,84.88
2019-02-19T02:58:07.067Z,85.08
2019-02-19T02:59:07.062Z,85.46
2019-02-19T03:00:07.058Z,85.64
2019-02-19T03:01:07.052Z,85.46
2019-02-19T03:02:07.045Z,85.64
2019-02-19T03:03:07.036Z,84.88
2019-02-19T03:04:07.025Z,85.46
2019-02-19T03:05:07.020Z,85.27
2019-02-19T03:06:07.024Z,85.27
2019-02-19T03:07:07.011Z,85.46
2019-02-19T03:08:06.994Z,85.93
2019-02-19T03:09:06.989Z,85.93
2019-02-19T03:10:06.976Z,86.12
2019-02-19T03:11:06.973Z,86.41
2019-02-19T03:12:06.966Z,86.12
2019-02-19T03:13:06.959Z,86.51
2019-02-19T03:14:06.950Z,86.12
2019-02-19T03:15:06.942Z,86.41
2019-02-19T03:16:06.931Z,86.22
2019-02-19T03:17:06.922Z,86.22
2019-02-19T03:18:06.917Z,86.22
2019-02-19T03:19:06.910Z,86.51
2019-02-19T03:20:06.927Z,86.69
2019-02-19T03:21:06.899Z,86.88
2019-02-19T03:22:06.886Z,86.60
2019-02-19T03:23:06.877Z,86.51
2019-02-19T03:24:06.876Z,86.79
2019-02-19T03:25:06.868Z,87.36
2019-02-19T03:26:06.857Z,86.88
2019-02-19T03:27:06.850Z,87.07
2019-02-19T03:28:06.837Z,86.98
2019-02-19T03:29:06.830Z,86.98
2019-02-19T03:30:06.821Z,87.84
2019-02-19T03:31:06.813Z,87.36
2019-02-19T03:32:06.813Z,87.84
2019-02-19T03:33:06.808Z,88.41
2019-02-19T03:34:06.796Z,87.65
2019-02-19T03:35:06.791Z,87.74
2019-02-19T03:36:06.776Z,87.46
2019-02-19T03:37:06.768Z,87.93
2019-02-19T03:38:06.774Z,88.03
2019-02-19T03:39:06.756Z,88.12
2019-02-19T03:40:07.634Z,88.41
2019-02-19T03:41:06.738Z,88.31
2019-02-19T03:42:06.725Z,89.17
2019-02-19T03:43:06.719Z,88.79
2019-02-19T03:44:06.714Z,88.70
2019-02-19T03:45:06.708Z,88.89
2019-02-19T03:46:12.051Z,88.89
2019-02-19T03:47:06.693Z,89.36
2019-02-19T03:48:06.679Z,89.17
2019-02-19T03:49:06.670Z,89.07
2019-02-19T03:50:06.666Z,90.22
2019-02-19T03:51:06.658Z,89.65
2019-02-19T03:52:06.656Z,90.12
2019-02-19T03:53:06.646Z,90.31
2019-02-19T03:54:06.633Z,90.22
2019-02-19T03:55:06.666Z,90.41
2019-02-19T03:56:06.623Z,90.31
2019-02-19T03:57:06.615Z,90.41
2019-02-19T03:58:06.607Z,90.60
2019-02-19T03:59:06.601Z,90.60
2019-02-19T04:00:06.586Z,91.03
2019-02-19T04:01:06.578Z,91.08
2019-02-19T04:02:06.571Z,91.03
2019-02-19T04:03:06.561Z,91.51
2019-02-19T04:04:06.558Z,91.51
2019-02-19T04:05:06.550Z,91.60
2019-02-19T04:06:06.544Z,91.84
2019-02-19T04:07:06.535Z,91.70
2019-02-19T04:08:06.525Z,92.32
2019-02-19T04:09:06.515Z,92.13
2019-02-19T04:10:06.510Z,92.03
2019-02-19T04:11:06.509Z,91.79
2019-02-19T04:12:06.492Z,92.32
2019-02-19T04:13:06.484Z,91.99
2019-02-19T04:14:06.472Z,92.22
2019-02-19T04:15:06.463Z,92.27
2019-02-19T04:16:06.462Z,92.41
2019-02-19T04:17:06.452Z,92.03
2019-02-19T04:18:06.444Z,92.41
2019-02-19T04:19:06.438Z,92.50
2019-02-19T04:20:06.426Z,92.27
2019-02-19T04:21:06.416Z,91.60
2019-02-19T04:22:06.416Z,92.18
2019-02-19T04:23:06.404Z,92.27
2019-02-19T04:24:06.400Z,92.36
2019-02-19T04:25:06.392Z,91.70
2019-02-19T04:26:06.379Z,92.08
2019-02-19T04:27:06.371Z,92.36
2019-02-19T04:28:06.366Z,92.36
2019-02-19T04:29:06.358Z,92.18
2019-02-19T04:30:06.349Z,92.27
2019-02-19T04:31:06.342Z,92.08
2019-02-19T04:32:06.327Z,92.36
2019-02-19T04:33:06.319Z,91.99
2019-02-19T04:34:06.315Z,92.36
2019-02-19T04:35:06.306Z,92.18
2019-02-19T04:36:06.302Z,92.46
2019-02-19T04:37:06.295Z,92.27
2019-02-19T04:38:06.284Z,92.46
2019-02-19T04:39:06.275Z,91.99
2019-02-19T04:40:06.263Z,92.65
2019-02-19T04:41:06.253Z,92.55
2019-02-19T04:42:06.255Z,92.65
2019-02-19T04:43:06.243Z,92.27
2019-02-19T04:44:06.231Z,93.03
2019-02-19T04:45:06.225Z,93.03
2019-02-19T04:46:06.216Z,93.51
2019-02-19T04:47:06.209Z,93.03
2019-02-19T04:48:06.207Z,93.51
2019-02-19T04:49:06.197Z,93.32
2019-02-19T04:50:06.188Z,93.03
2019-02-19T04:51:06.181Z,92.55
2019-02-19T04:52:06.170Z,93.41
2019-02-19T04:53:06.160Z,93.13
2019-02-19T04:54:06.175Z,93.22
2019-02-19T04:55:06.141Z,93.13
2019-02-19T04:56:06.141Z,92.70
2019-02-19T04:57:06.152Z,93.08
2019-02-19T04:58:06.117Z,93.37
2019-02-19T04:59:06.110Z,92.79
2019-02-19T05:00:06.103Z,93.65
2019-02-19T05:01:06.098Z,93.46
2019-02-19T05:02:06.090Z,93.46
2019-02-19T05:03:06.081Z,93.65
2019-02-19T05:04:06.072Z,93.37
2019-02-19T05:05:06.074Z,93.27
2019-02-19T05:06:06.053Z,93.46
2019-02-19T05:07:06.048Z,93.08
2019-02-19T05:08:06.042Z,93.18
2019-02-19T05:09:06.032Z,93.32
2019-02-19T05:10:06.029Z,93.32
2019-02-19T05:11:06.015Z,93.32
2019-02-19T05:12:06.010Z,93.32
2019-02-19T05:13:05.992Z,93.32
2019-02-19T05:14:05.988Z,93.51
2019-02-19T05:15:05.982Z,93.41
2019-02-19T05:16:05.967Z,93.41
2019-02-19T05:17:05.959Z,93.70
2019-02-19T05:18:05.955Z,93.27
2019-02-19T05:19:05.946Z,93.51
2019-02-19T05:20:05.951Z,93.51
2019-02-19T05:21:05.933Z,93.08
2019-02-19T05:22:05.926Z,93.46
2019-02-19T05:23:07.500Z,93.32
2019-02-19T05:24:05.906Z,93.32
2019-02-19T05:25:05.895Z,93.70
2019-02-19T05:26:05.889Z,93.41
2019-02-19T05:27:05.879Z,93.13
2019-02-19T05:28:05.873Z,93.32
2019-02-19T05:29:05.866Z,93.08
2019-02-19T05:30:05.851Z,93.03
2019-02-19T05:31:05.844Z,93.41
2019-02-19T05:32:05.841Z,93.13
2019-02-19T05:33:05.831Z,93.51
2019-02-19T05:34:05.825Z,93.37
2019-02-19T05:35:05.821Z,93.98
2019-02-19T05:36:05.808Z,93.70
2019-02-19T05:37:05.807Z,93.65
2019-02-19T05:38:05.785Z,93.65
2019-02-19T05:39:05.791Z,93.89
2019-02-19T05:40:05.777Z,94.03
2019-02-19T05:41:05.768Z,94.03
2019-02-19T05:42:05.761Z,94.03
2019-02-19T05:43:05.754Z,94.42
2019-02-19T05:44:05.750Z,94.22
2019-02-19T05:45:05.731Z,94.51
2019-02-19T05:46:05.728Z,94.22
2019-02-19T05:47:05.717Z,94.13
2019-02-19T05:48:05.705Z,94.42
2019-02-19T05:49:05.701Z,94.79
2019-02-19T05:50:05.685Z,94.60
2019-02-19T05:51:05.676Z,94.51
2019-02-19T05:52:05.674Z,94.79
2019-02-19T05:53:05.664Z,94.51
2019-02-19T05:54:05.658Z,95.08
2019-02-19T05:55:05.648Z,94.60
2019-02-19T05:56:05.688Z,95.08
2019-02-19T05:57:05.627Z,94.79
2019-02-19T05:58:05.619Z,94.98
2019-02-19T05:59:05.625Z,94.79
2019-02-19T06:00:05.608Z,94.70
2019-02-19T06:01:05.601Z,94.89
2019-02-19T06:02:05.586Z,94.98
2019-02-19T06:03:05.579Z,95.56
2019-02-19T06:04:05.575Z,95.27
2019-02-19T06:05:05.926Z,95.36
2019-02-19T06:06:05.553Z,95.56
2019-02-19T06:07:05.546Z,95.27
2019-02-19T06:08:05.532Z,95.84
2019-02-19T06:09:05.527Z,95.65
2019-02-19T06:10:05.516Z,95.84
2019-02-19T06:11:05.508Z,95.65
2019-02-19T06:12:05.504Z,95.84
2019-02-19T06:13:05.495Z,95.94
2019-02-19T06:14:05.489Z,96.03
2019-02-19T06:15:05.482Z,95.84
2019-02-19T06:16:05.468Z,95.94
2019-02-19T06:17:05.460Z,95.75
2019-02-19T06:18:05.455Z,96.31
2019-02-19T06:19:05.448Z,96.60
2019-02-19T06:20:05.433Z,96.31
2019-02-19T06:21:05.427Z,96.60
2019-02-19T06:22:05.412Z,96.31
2019-02-19T06:23:05.406Z,96.31
2019-02-19T06:24:05.403Z,96.60
2019-02-19T06:25:05.401Z,96.51
2019-02-19T06:26:05.385Z,96.60
2019-02-19T06:27:05.375Z,96.60
2019-02-19T06:28:05.364Z,96.31
2019-02-19T06:29:05.352Z,96.70
2019-02-19T06:30:05.346Z,96.79
2019-02-19T06:31:05.338Z,96.79
2019-02-19T06:32:05.335Z,96.22
2019-02-19T06:33:05.323Z,96.70
2019-02-19T06:34:05.312Z,95.75
2019-02-19T06:35:05.305Z,95.56
2019-02-19T06:36:05.305Z,95.65
2019-02-19T06:37:05.292Z,95.75
2019-02-19T06:38:05.282Z,96.22
2019-02-19T06:39:05.271Z,96.70
2019-02-19T06:40:05.260Z,96.60
2019-02-19T06:41:05.252Z,96.70
2019-02-19T06:42:05.243Z,96.51
2019-02-19T06:43:05.235Z,96.70
2019-02-19T06:44:05.230Z,96.31
2019-02-19T06:45:05.222Z,96.79
2019-02-19T06:46:05.211Z,96.60
2019-02-19T06:47:07.094Z,96.60
2019-02-19T06:48:05.189Z,96.70
2019-02-19T06:49:05.180Z,96.51
2019-02-19T06:50:05.174Z,96.31
2019-02-19T06:51:05.166Z,96.60
2019-02-19T06:52:05.159Z,96.60
2019-02-19T06:53:05.152Z,96.31
2019-02-19T06:54:05.138Z,96.60
2019-02-19T06:55:05.128Z,96.60
2019-02-19T06:56:05.127Z,96.22
2019-02-19T06:57:05.117Z,96.70
2019-02-19T06:58:05.109Z,96.60
2019-02-19T06:59:05.100Z,96.41
2019-02-19T07:00:05.087Z,96.41
2019-02-19T07:01:05.077Z,96.41
2019-02-19T07:02:05.065Z,96.41
2019-02-19T07:03:05.057Z,96.51
2019-02-19T07:04:05.052Z,96.60
2019-02-19T07:05:05.044Z,96.70
2019-02-19T07:06:05.031Z,95.65
2019-02-19T07:07:05.024Z,95.65
2019-02-19T07:08:05.020Z,95.94
2019-02-19T07:09:05.010Z,95.94
2019-02-19T07:10:05.003Z,95.94
2019-02-19T07:11:04.995Z,95.94
2019-02-19T07:12:04.983Z,95.94
2019-02-19T07:13:04.973Z,95.94
2019-02-19T07:14:04.965Z,95.84
2019-02-19T07:15:04.955Z,95.65
2019-02-19T07:16:04.955Z,95.84
2019-02-19T07:17:04.942Z,96.12
2019-02-19T07:18:04.931Z,96.12
2019-02-19T07:19:04.924Z,96.22
2019-02-19T07:20:04.910Z,95.75
2019-02-19T07:21:04.900Z,95.65
2019-02-19T07:22:04.898Z,95.94
2019-02-19T07:23:04.889Z,95.65
2019-02-19T07:24:04.895Z,96.12
2019-02-19T07:25:04.866Z,95.75
2019-02-19T07:26:04.861Z,96.03
2019-02-19T07:27:04.854Z,96.12
2019-02-19T07:28:04.849Z,95.94
2019-02-19T07:29:04.842Z,96.03
2019-02-19T07:30:04.830Z,95.84
2019-02-19T07:31:04.822Z,95.84
2019-02-19T07:32:04.809Z,96.03
2019-02-19T07:33:04.802Z,95.75
2019-02-19T07:34:04.789Z,96.03
2019-02-19T07:35:04.780Z,96.03
2019-02-19T07:36:04.778Z,95.94
2019-02-19T07:37:04.769Z,95.94
2019-02-19T07:38:04.755Z,95.94
2019-02-19T07:39:04.749Z,95.94
2019-02-19T07:40:04.743Z,95.84
2019-02-19T07:41:04.736Z,95.84
2019-02-19T07:42:04.730Z,95.94
2019-02-19T07:43:04.720Z,95.65
2019-02-19T07:44:04.709Z,95.84
2019-02-19T07:45:04.701Z,96.03
2019-02-19T07:46:04.695Z,95.84
2019-02-19T07:47:04.691Z,96.08
2019-02-19T07:48:04.674Z,96.12
2019-02-19T07:49:04.665Z,95.51
2019-02-19T07:50:04.656Z,95.12
2019-02-19T07:51:04.648Z,95.41
2019-02-19T07:52:04.644Z,95.12
2019-02-19T07:53:04.634Z,95.32
2019-02-19T07:54:04.621Z,94.84
2019-02-19T07:55:04.613Z,95.12
2019-02-19T07:56:04.615Z,94.93
2019-02-19T07:57:04.601Z,95.22
2019-02-19T07:58:04.595Z,94.65
2019-02-19T07:59:04.586Z,94.74
2019-02-19T08:00:04.577Z,94.17
2019-02-19T08:01:04.567Z,94.65
2019-02-19T08:02:04.559Z,94.46
2019-02-19T08:03:05.046Z,94.84
2019-02-19T08:04:04.548Z,94.84
2019-02-19T08:05:04.537Z,94.56
2019-02-19T08:06:04.528Z,94.46
2019-02-19T08:07:04.522Z,94.84
2019-02-19T08:08:04.506Z,94.74
2019-02-19T08:09:04.501Z,93.98
2019-02-19T08:10:04.499Z,94.27
2019-02-19T08:11:04.495Z,94.56
2019-02-19T08:12:04.477Z,94.46
2019-02-19T08:13:04.475Z,94.17
2019-02-19T08:14:04.462Z,94.17
2019-02-19T08:15:04.461Z,93.98
2019-02-19T08:16:04.453Z,94.37
2019-02-19T08:17:04.444Z,93.60
2019-02-19T08:18:04.435Z,93.51
2019-02-19T08:19:04.426Z,93.22
2019-02-19T08:20:04.415Z,93.89
2019-02-19T08:21:04.407Z,93.98
2019-02-19T08:22:04.395Z,93.41
2019-02-19T08:23:04.387Z,93.60
2019-02-19T08:24:04.384Z,93.70
2019-02-19T08:25:04.377Z,93.74
2019-02-19T08:26:04.363Z,93.93
2019-02-19T08:27:04.356Z,92.93
2019-02-19T08:28:04.354Z,93.55
2019-02-19T08:29:13.448Z,92.50
2019-02-19T08:30:04.338Z,91.69
2019-02-19T08:31:04.333Z,90.69
2019-02-19T08:32:04.320Z,88.87
2019-02-19T08:33:04.317Z,86.47
2019-02-19T08:34:04.305Z,84.06
2019-02-19T08:35:04.305Z,81.33
2019-02-19T08:36:04.298Z,79.22
2019-02-19T08:37:04.292Z,77.11
2019-02-19T08:38:04.284Z,75.81
2019-02-19T08:39:04.283Z,74.95
2019-02-19T08:40:04.274Z,73.55
2019-02-19T08:41:04.282Z,72.91
2019-02-19T08:42:04.268Z,71.51
2019-02-19T08:43:04.266Z,70.29
2019-02-19T08:44:04.256Z,68.57
2019-02-19T08:45:04.254Z,68.08
2019-02-19T08:46:04.255Z,67.96
2019-02-19T08:47:04.256Z,67.99
2019-02-19T08:48:04.257Z,68.02
2019-02-19T08:49:04.253Z,66.77
2019-02-19T08:50:04.250Z,66.33
2019-02-19T08:51:04.255Z,65.01
2019-02-19T08:52:04.246Z,63.89
2019-02-19T08:53:04.245Z,62.67
2019-02-19T08:54:04.249Z,62.35
2019-02-19T08:55:04.248Z,62.26
2019-02-19T08:56:04.256Z,61.29
2019-02-19T08:57:04.256Z,61.65
2019-02-19T08:58:04.250Z,61.74
2019-02-19T08:59:04.255Z,61.87
2019-02-19T09:00:04.260Z,60.27
2019-02-19T09:01:04.261Z,60.49
2019-02-19T09:02:04.262Z,59.62
2019-02-19T09:03:04.272Z,59.07
2019-02-19T09:04:04.260Z,58.33
2019-02-19T09:05:04.262Z,57.87
2019-02-19T09:06:04.266Z,56.79
2019-02-19T09:07:04.268Z,55.44
2019-02-19T09:08:04.277Z,55.79
2019-02-19T09:09:04.297Z,56.30
2019-02-19T09:10:04.284Z,55.56
2019-02-19T09:11:04.289Z,54.82
2019-02-19T09:12:04.286Z,53.95
2019-02-19T09:13:04.289Z,53.27
2019-02-19T09:14:04.298Z,52.69
2019-02-19T09:15:04.302Z,52.95
2019-02-19T09:16:04.304Z,52.50
2019-02-19T09:17:04.305Z,52.21
2019-02-19T09:18:04.315Z,52.31
2019-02-19T09:19:04.312Z,51.82
2019-02-19T09:20:04.326Z,52.04
2019-02-19T09:21:04.325Z,51.29
2019-02-19T09:22:04.331Z,51.10
2019-02-19T09:23:04.335Z,50.84
2019-02-19T09:24:09.417Z,51.12
2019-02-19T09:25:04.340Z,51.77
2019-02-19T09:26:04.346Z,52.35
2019-02-19T09:27:04.351Z,51.97
2019-02-19T09:28:04.361Z,52.40
2019-02-19T09:29:04.365Z,52.04
2019-02-19T09:30:04.367Z,52.52
2019-02-19T09:31:04.377Z,53.31
2019-02-19T09:32:04.382Z,52.50
2019-02-19T09:33:04.384Z,52.61
2019-02-19T09:34:04.390Z,52.76
2019-02-19T09:35:04.398Z,52.04
2019-02-19T09:36:04.402Z,51.01
2019-02-19T09:37:04.399Z,50.31
2019-02-19T09:38:04.405Z,50.21
2019-02-19T09:39:04.410Z,51.22
2019-02-19T09:40:04.421Z,51.56
2019-02-19T09:41:04.425Z,52.83
2019-02-19T09:42:04.431Z,54.31
2019-02-19T09:43:04.437Z,55.55
2019-02-19T09:44:04.439Z,55.65
2019-02-19T09:45:04.442Z,55.52
2019-02-19T09:46:04.451Z,55.38
2019-02-19T09:47:04.458Z,54.38
2019-02-19T09:48:04.457Z,53.53
2019-02-19T09:49:04.462Z,54.43
2019-02-19T09:50:04.463Z,55.30
2019-02-19T09:51:04.467Z,55.88
2019-02-19T09:52:04.484Z,56.25
2019-02-19T09:53:04.481Z,54.86
2019-02-19T09:54:04.512Z,53.51
2019-02-19T09:55:04.491Z,52.81
2019-02-19T09:56:04.494Z,52.81
2019-02-19T09:57:04.494Z,53.43
2019-02-19T09:58:04.495Z,53.87
2019-02-19T09:59:04.499Z,52.69
2019-02-19T10:00:04.510Z,51.92
2019-02-19T10:01:04.511Z,51.20
2019-02-19T10:02:04.510Z,51.46
2019-02-19T10:03:04.515Z,52.08
2019-02-19T10:04:04.524Z,52.20
2019-02-19T10:05:04.527Z,52.59
2019-02-19T10:06:04.533Z,53.05
2019-02-19T10:07:04.538Z,53.78
2019-02-19T10:08:04.537Z,53.94
2019-02-19T10:09:04.540Z,53.53
2019-02-19T10:10:04.545Z,53.76
2019-02-19T10:11:04.546Z,54.27
2019-02-19T10:12:04.554Z,53.87
2019-02-19T10:13:04.556Z,52.45
2019-02-19T10:14:04.559Z,51.72
2019-02-19T10:15:04.560Z,52.08
2019-02-19T10:16:04.559Z,52.61
2019-02-19T10:17:04.560Z,51.61
2019-02-19T10:18:10.320Z,50.18
2019-02-19T10:19:04.572Z,49.17
2019-02-19T10:20:04.569Z,47.60
2019-02-19T10:21:04.574Z,46.83
2019-02-19T10:22:04.578Z,48.03
2019-02-19T10:23:04.584Z,48.52
2019-02-19T10:24:04.591Z,48.47
2019-02-19T10:25:04.594Z,47.72
2019-02-19T10:26:04.596Z,47.09
2019-02-19T10:27:04.602Z,46.09
2019-02-19T10:28:04.601Z,44.78
2019-02-19T10:29:04.605Z,43.32
2019-02-19T10:30:04.611Z,44.68
2019-02-19T10:31:04.610Z,45.72
2019-02-19T10:32:05.975Z,45.18
2019-02-19T10:33:04.624Z,44.35
2019-02-19T10:34:04.625Z,43.70
2019-02-19T10:35:04.632Z,42.65
2019-02-19T10:36:04.640Z,41.89
2019-02-19T10:37:04.643Z,40.92
2019-02-19T10:38:04.652Z,41.91
2019-02-19T10:39:04.657Z,41.62
2019-02-19T10:40:04.658Z,41.89
2019-02-19T10:41:04.664Z,42.22
2019-02-19T10:42:04.671Z,41.37
2019-02-19T10:43:04.676Z,41.37
2019-02-19T10:44:04.687Z,40.89
2019-02-19T10:45:04.691Z,40.69
2019-02-19T10:46:04.696Z,40.33
2019-02-19T10:47:04.704Z,39.76
2019-02-19T10:48:04.717Z,39.18
2019-02-19T10:49:04.711Z,39.67
2019-02-19T10:50:04.721Z,40.57
2019-02-19T10:51:04.730Z,42.56
2019-02-19T10:52:04.731Z,43.10
2019-02-19T10:53:04.743Z,44.67
2019-02-19T10:54:04.745Z,46.93
2019-02-19T10:55:04.752Z,48.95
2019-02-19T10:56:04.765Z,50.46
2019-02-19T10:57:04.768Z,51.04
2019-02-19T10:58:04.771Z,51.86
2019-02-19T10:59:04.776Z,51.86
2019-02-19T11:00:04.777Z,51.45
2019-02-19T11:01:04.779Z,52.12
2019-02-19T11:02:04.789Z,52.08
2019-02-19T11:03:04.794Z,51.93
2019-02-19T11:04:04.799Z,51.81
2019-02-19T11:05:04.803Z,52.48
2019-02-19T11:06:04.805Z,52.80
2019-02-19T11:07:04.809Z,52.87
2019-02-19T11:08:04.814Z,53.16
2019-02-19T11:09:04.818Z,53.42
2019-02-19T11:10:04.817Z,54.08
2019-02-19T11:11:04.824Z,52.66
2019-02-19T11:12:04.818Z,52.25
2019-02-19T11:13:04.821Z,52.42
2019-02-19T11:14:04.824Z,52.47
2019-02-19T11:15:04.826Z,51.36
2019-02-19T11:16:04.833Z,51.34
2019-02-19T11:17:04.836Z,50.83
2019-02-19T11:18:04.840Z,51.09
2019-02-19T11:19:04.842Z,51.26
2019-02-19T11:20:04.846Z,51.81
2019-02-19T11:21:04.845Z,53.13
2019-02-19T11:22:04.851Z,53.68
2019-02-19T11:23:04.856Z,54.38
2019-02-19T11:24:04.851Z,55.41
2019-02-19T11:25:04.854Z,55.41
2019-02-19T11:26:04.851Z,56.08
2019-02-19T11:27:04.853Z,56.34
2019-02-19T11:28:04.860Z,56.78
2019-02-19T11:29:04.860Z,56.49
2019-02-19T11:30:04.861Z,56.01
2019-02-19T11:31:04.864Z,55.79
2019-02-19T11:32:04.858Z,56.27
2019-02-19T11:33:04.861Z,56.08
2019-02-19T11:34:04.863Z,56.53
2019-02-19T11:35:04.871Z,56.92
2019-02-19T11:36:04.871Z,57.28
2019-02-19T11:37:04.870Z,57.43
2019-02-19T11:38:04.866Z,58.33
2019-02-19T11:39:04.869Z,58.69
2019-02-19T11:40:04.873Z,58.71
2019-02-19T11:41:04.871Z,59.29
2019-02-19T11:42:04.947Z,59.45
2019-02-19T11:43:04.870Z,59.55
2019-02-19T11:44:04.865Z,60.28
2019-02-19T11:45:04.864Z,60.28
2019-02-19T11:46:04.864Z,60.67
2019-02-19T11:47:04.863Z,61.11
2019-02-19T11:48:04.868Z,61.60
2019-02-19T11:49:04.867Z,61.98
2019-02-19T11:50:04.868Z,62.46
2019-02-19T11:51:04.871Z,62.55
2019-02-19T11:52:04.862Z,62.65
2019-02-19T11:53:04.880Z,62.84
2019-02-19T11:54:04.864Z,62.87
2019-02-19T11:55:04.863Z,62.49
2019-02-19T11:56:04.858Z,62.59
2019-02-19T11:57:04.858Z,62.77
2019-02-19T11:58:04.851Z,62.74
2019-02-19T11:59:04.850Z,63.03
2019-02-19T12:00:04.854Z,63.32
2019-02-19T12:01:04.859Z,62.74
2019-02-19T12:02:04.855Z,62.93
2019-02-19T12:03:04.849Z,62.65
2019-02-19T12:04:04.847Z,62.74
2019-02-19T12:05:06.876Z,61.79
2019-02-19T12:06:04.847Z,61.60
2019-02-19T12:07:04.841Z,61.79
2019-02-19T12:08:04.844Z,62.43
2019-02-19T12:09:04.848Z,62.71
2019-02-19T12:10:04.834Z,62.71
2019-02-19T12:11:04.834Z,63.39
2019-02-19T12:12:04.835Z,63.67
2019-02-19T12:13:04.832Z,64.15
2019-02-19T12:14:04.828Z,64.05
2019-02-19T12:15:04.826Z,64.63
2019-02-19T12:16:04.821Z,64.05
2019-02-19T12:17:04.816Z,64.05
2019-02-19T12:18:04.817Z,63.86
2019-02-19T12:19:04.813Z,63.29
2019-02-19T12:20:04.814Z,63.29
2019-02-19T12:21:04.811Z,63.39
2019-02-19T12:22:04.812Z,64.05
2019-02-19T12:23:04.810Z,63.86
2019-02-19T12:24:04.802Z,63.39
2019-02-19T12:25:04.796Z,64.25
2019-02-19T12:26:04.798Z,64.15
2019-02-19T12:27:07.366Z,63.93
2019-02-19T12:28:04.799Z,64.25
2019-02-19T12:29:04.790Z,64.15
2019-02-19T12:30:04.784Z,64.05
2019-02-19T12:31:04.819Z,64.05
2019-02-19T12:32:04.781Z,63.76
2019-02-19T12:33:04.775Z,63.86
2019-02-19T12:34:04.774Z,63.76
2019-02-19T12:35:04.771Z,63.96
2019-02-19T12:36:04.764Z,64.15
2019-02-19T12:37:04.760Z,64.05
2019-02-19T12:38:04.760Z,64.34
2019-02-19T12:39:04.758Z,64.63
2019-02-19T12:40:04.762Z,63.76
2019-02-19T12:41:04.755Z,63.80
2019-02-19T12:42:04.748Z,63.13
2019-02-19T12:43:04.750Z,63.70
2019-02-19T12:44:04.747Z,63.67
2019-02-19T12:45:04.743Z,63.42
2019-02-19T12:46:04.742Z,63.70
2019-02-19T12:47:04.735Z,63.99
2019-02-19T12:48:04.730Z,63.03
2019-02-19T12:49:04.729Z,62.93
2019-02-19T12:50:04.721Z,62.93
2019-02-19T12:51:04.720Z,63.42
2019-02-19T12:52:04.723Z,63.42